createdAt,value
2022-10-24T00:01:21.662Z,13.49
2022-10-24T00:03:49.913Z,13.57
2022-10-24T00:06:18.412Z,13.54
2022-10-24T00:08:45.430Z,13.51
2022-10-24T00:11:15.969Z,13.52
2022-10-24T00:13:43.583Z,13.43
2022-10-24T00:16:11.554Z,13.52
2022-10-24T00:18:38.942Z,13.49
2022-10-24T00:21:06.385Z,13.48
2022-10-24T00:23:33.562Z,13.47
2022-10-24T00:26:02.005Z,13.32
2022-10-24T00:28:29.651Z,13.22
2022-10-24T00:30:57.006Z,13.22
2022-10-24T00:33:24.884Z,13.22
2022-10-24T00:35:51.985Z,13.18
2022-10-24T00:38:19.137Z,13.17
2022-10-24T00:40:46.477Z,13.15
2022-10-24T00:43:19.021Z,13.14
2022-10-24T00:45:50.894Z,13.10
2022-10-24T00:48:23.504Z,13.15
2022-10-24T00:50:54.893Z,13.17
2022-10-24T00:53:22.449Z,13.16
2022-10-24T00:55:52.997Z,13.11
2022-10-24T00:58:22.308Z,13.10
2022-10-24T01:00:49.784Z,13.13
2022-10-24T01:03:16.892Z,13.07
2022-10-24T01:06:10.364Z,13.04
2022-10-24T01:08:37.405Z,13.06
2022-10-24T01:11:23.054Z,13.02
2022-10-24T01:13:58.200Z,13.02
2022-10-24T01:16:32.396Z,12.99
2022-10-24T01:19:11.611Z,12.93
2022-10-24T01:22:00.121Z,12.91
2022-10-24T01:24:55.813Z,12.88
2022-10-24T01:27:41.983Z,12.93
2022-10-24T01:30:11.693Z,12.93
2022-10-24T01:33:00.631Z,13.00
2022-10-24T01:35:46.362Z,12.97
2022-10-24T01:38:16.509Z,12.95
2022-10-24T01:40:46.448Z,12.85
2022-10-24T01:43:15.419Z,12.79
2022-10-24T01:45:46.392Z,12.73
2022-10-24T01:48:17.797Z,12.73
2022-10-24T01:50:46.169Z,12.69
2022-10-24T01:53:13.759Z,12.75
2022-10-24T01:55:41.275Z,12.71
2022-10-24T01:58:08.521Z,12.76
2022-10-24T02:00:36.184Z,12.66
2022-10-24T02:03:17.280Z,12.60
2022-10-24T02:05:49.494Z,12.69
2022-10-24T02:08:22.030Z,12.66
2022-10-24T02:10:53.189Z,12.67
2022-10-24T02:13:32.242Z,12.65
2022-10-24T02:16:00.836Z,12.64
2022-10-24T02:18:28.902Z,12.65
2022-10-24T02:21:08.193Z,12.67
2022-10-24T02:23:43.462Z,12.56
2022-10-24T02:26:20.522Z,12.51
2022-10-24T02:28:49.832Z,12.55
2022-10-24T02:31:22.060Z,12.54
2022-10-24T02:33:50.214Z,12.54
2022-10-24T02:36:20.157Z,12.59
2022-10-24T02:38:48.921Z,12.62
2022-10-24T02:41:21.306Z,12.49
2022-10-24T02:43:50.273Z,12.53
2022-10-24T02:46:18.906Z,12.53
2022-10-24T02:48:51.170Z,12.48
2022-10-24T02:51:21.052Z,12.52
2022-10-24T02:53:48.189Z,12.48
2022-10-24T02:56:15.208Z,12.45
2022-10-24T02:58:42.615Z,12.48
2022-10-24T03:01:09.733Z,12.57
2022-10-24T03:03:36.826Z,12.56
2022-10-24T03:06:04.250Z,12.53
2022-10-24T03:08:31.272Z,12.49
2022-10-24T03:10:58.284Z,12.44
2022-10-24T03:13:25.550Z,12.41
2022-10-24T03:15:52.602Z,12.41
2022-10-24T03:18:19.606Z,12.32
2022-10-24T03:20:47.109Z,12.36
2022-10-24T03:23:14.216Z,12.35
2022-10-24T03:25:41.219Z,12.40
2022-10-24T03:28:08.587Z,12.45
2022-10-24T03:30:35.618Z,12.45
2022-10-24T03:33:02.677Z,12.41
2022-10-24T03:35:30.524Z,12.43
2022-10-24T03:37:57.568Z,12.45
2022-10-24T03:40:24.560Z,12.45
2022-10-24T03:42:52.334Z,12.43
2022-10-24T03:45:19.370Z,12.42
2022-10-24T03:47:46.341Z,12.37
2022-10-24T03:50:13.663Z,12.37
2022-10-24T03:52:40.657Z,12.43
2022-10-24T03:55:08.043Z,12.35
2022-10-24T03:57:35.333Z,12.35
2022-10-24T04:00:02.441Z,12.27
2022-10-24T04:02:33.663Z,12.24
2022-10-24T04:05:01.484Z,12.25
2022-10-24T04:07:31.477Z,12.30
2022-10-24T04:09:58.521Z,12.44
2022-10-24T04:12:25.833Z,12.35
2022-10-24T04:14:52.986Z,12.33
2022-10-24T04:17:19.994Z,12.22
2022-10-24T04:19:47.353Z,12.23
2022-10-24T04:22:14.363Z,12.15
2022-10-24T04:24:41.699Z,12.14
2022-10-24T04:27:09.039Z,12.02
2022-10-24T04:29:36.497Z,12.07
2022-10-24T04:32:04.211Z,12.06
2022-10-24T04:34:35.994Z,12.12
2022-10-24T04:37:03.702Z,12.16
2022-10-24T04:39:30.725Z,12.07
2022-10-24T04:41:58.014Z,12.02
2022-10-24T04:44:25.006Z,12.03
2022-10-24T04:46:51.989Z,12.02
2022-10-24T04:49:19.884Z,12.00
2022-10-24T04:51:46.867Z,11.93
2022-10-24T04:54:13.996Z,11.88
2022-10-24T04:56:41.598Z,11.92
2022-10-24T04:59:08.609Z,11.90
2022-10-24T05:01:35.688Z,11.83
2022-10-24T05:04:03.163Z,11.95
2022-10-24T05:06:30.266Z,11.90
2022-10-24T05:08:57.273Z,11.90
2022-10-24T05:11:24.590Z,11.84
2022-10-24T05:13:51.578Z,11.97
2022-10-24T05:16:18.577Z,11.95
2022-10-24T05:18:45.879Z,11.89
2022-10-24T05:21:12.867Z,11.92
2022-10-24T05:23:39.898Z,11.99
2022-10-24T05:26:07.606Z,12.10
2022-10-24T05:28:35.779Z,12.06
2022-10-24T05:31:02.827Z,12.07
2022-10-24T05:33:30.217Z,12.05
2022-10-24T05:35:57.284Z,12.03
2022-10-24T05:38:25.013Z,12.07
2022-10-24T05:40:52.491Z,12.03
2022-10-24T05:43:19.594Z,12.01
2022-10-24T05:48:21.284Z,12.05
2022-10-24T05:50:48.338Z,12.04
2022-10-24T05:53:15.384Z,12.05
2022-10-24T05:55:42.940Z,12.13
2022-10-24T05:58:09.946Z,12.01
2022-10-24T06:00:37.047Z,12.00
2022-10-24T06:03:04.415Z,12.07
2022-10-24T06:05:31.421Z,12.04
2022-10-24T06:07:59.488Z,12.12
2022-10-24T06:10:26.882Z,12.07
2022-10-24T06:12:53.870Z,12.00
2022-10-24T06:15:21.001Z,12.10
2022-10-24T06:17:48.328Z,12.09
2022-10-24T06:20:15.342Z,12.01
2022-10-24T06:22:45.474Z,12.02
2022-10-24T06:25:14.100Z,12.09
2022-10-24T06:27:41.540Z,11.97
2022-10-24T06:30:10.357Z,12.07
2022-10-24T06:32:40.825Z,11.99
2022-10-24T06:35:13.383Z,12.05
2022-10-24T06:37:42.993Z,12.04
2022-10-24T06:40:13.600Z,12.07
2022-10-24T06:42:41.891Z,12.06
2022-10-24T06:45:09.330Z,12.05
2022-10-24T06:47:36.316Z,12.22
2022-10-24T06:50:04.490Z,12.09
2022-10-24T06:52:31.502Z,12.12
2022-10-24T06:54:58.517Z,12.23
2022-10-24T06:57:26.050Z,12.32
2022-10-24T06:59:53.650Z,12.28
2022-10-24T07:02:21.219Z,12.30
2022-10-24T07:04:48.624Z,12.17
2022-10-24T07:07:19.438Z,12.19
2022-10-24T07:09:52.296Z,12.22
2022-10-24T07:14:52.199Z,12.45
2022-10-24T07:17:20.146Z,12.57
2022-10-24T07:19:52.796Z,12.58
2022-10-24T07:22:20.130Z,12.23
2022-10-24T07:24:52.980Z,12.33
2022-10-24T07:27:21.128Z,12.37
2022-10-24T07:29:48.102Z,12.54
2022-10-24T07:32:15.177Z,12.53
2022-10-24T07:34:42.513Z,12.57
2022-10-24T07:37:09.591Z,12.64
2022-10-24T07:39:37.464Z,12.56
2022-10-24T07:42:04.825Z,12.58
2022-10-24T07:44:31.951Z,12.46
2022-10-24T07:46:58.974Z,12.53
2022-10-24T07:49:29.054Z,12.44
2022-10-24T07:51:58.497Z,12.59
2022-10-24T07:54:26.807Z,12.43
2022-10-24T07:56:54.282Z,12.43
2022-10-24T07:59:40.614Z,12.34
2022-10-24T08:02:11.258Z,12.49
2022-10-24T08:04:39.013Z,12.53
2022-10-24T08:07:13.089Z,12.40
2022-10-24T08:09:42.385Z,12.34
2022-10-24T08:12:10.039Z,12.16
2022-10-24T08:14:38.345Z,12.40
2022-10-24T08:17:05.751Z,12.42
2022-10-24T08:19:33.274Z,12.52
2022-10-24T08:22:01.013Z,12.64
2022-10-24T08:24:28.725Z,12.59
2022-10-24T08:26:58.273Z,12.64
2022-10-24T08:29:25.600Z,12.67
2022-10-24T08:31:54.730Z,12.89
2022-10-24T08:34:22.350Z,12.75
2022-10-24T08:36:49.827Z,12.65
2022-10-24T08:39:17.953Z,12.82
2022-10-24T08:42:12.344Z,12.92
2022-10-24T08:44:41.864Z,12.76
2022-10-24T08:47:09.995Z,12.71
2022-10-24T08:49:57.753Z,12.91
2022-10-24T08:52:31.714Z,12.89
2022-10-24T08:55:04.801Z,12.86
2022-10-24T08:57:34.930Z,12.72
2022-10-24T09:00:18.891Z,12.84
2022-10-24T09:02:51.496Z,12.68
2022-10-24T09:05:26.192Z,12.98
2022-10-24T09:08:03.170Z,13.01
2022-10-24T09:10:44.376Z,13.26
2022-10-24T09:13:14.294Z,13.26
2022-10-24T09:15:43.208Z,13.48
2022-10-24T09:18:34.898Z,13.56
2022-10-24T09:21:05.948Z,13.54
2022-10-24T09:23:34.413Z,13.57
2022-10-24T09:26:03.328Z,13.60
2022-10-24T09:28:31.441Z,13.48
2022-10-24T09:30:58.433Z,13.55
2022-10-24T09:33:30.324Z,13.34
2022-10-24T09:36:00.973Z,13.25
2022-10-24T09:38:34.235Z,13.35
2022-10-24T09:41:07.506Z,13.32
2022-10-24T09:43:43.385Z,13.13
2022-10-24T09:46:23.091Z,13.24
2022-10-24T09:48:50.183Z,13.18
2022-10-24T09:51:26.020Z,13.12
2022-10-24T09:54:11.916Z,13.22
2022-10-24T09:56:41.218Z,13.26
2022-10-24T09:59:20.289Z,13.21
2022-10-24T10:01:47.781Z,13.38
2022-10-24T10:04:17.640Z,13.43
2022-10-24T10:06:49.497Z,13.53
2022-10-24T10:09:24.770Z,13.44
2022-10-24T10:12:02.806Z,13.39
2022-10-24T10:14:30.413Z,13.52
2022-10-24T10:17:03.621Z,13.59
2022-10-24T10:19:39.113Z,13.60
2022-10-24T10:22:23.163Z,13.71
2022-10-24T10:24:51.662Z,13.79
2022-10-24T10:27:40.017Z,13.92
2022-10-24T10:30:16.105Z,13.97
2022-10-24T10:33:01.197Z,13.83
2022-10-24T10:35:38.408Z,13.96
2022-10-24T10:38:34.125Z,13.96
2022-10-24T10:41:04.108Z,14.07
2022-10-24T10:43:43.613Z,14.33
2022-10-24T10:46:29.766Z,14.36
2022-10-24T10:49:05.850Z,14.49
2022-10-24T10:51:44.484Z,14.60
2022-10-24T10:54:35.029Z,14.48
2022-10-24T10:57:17.228Z,14.60
2022-10-24T11:00:09.908Z,14.68
2022-10-24T11:03:11.262Z,14.76
2022-10-24T11:06:04.208Z,14.96
2022-10-24T11:09:02.507Z,15.14
2022-10-24T11:11:33.671Z,15.38
2022-10-24T11:14:37.191Z,15.57
2022-10-24T11:17:50.779Z,15.56
2022-10-24T11:20:28.176Z,15.20
2022-10-24T11:23:00.422Z,15.22
2022-10-24T11:25:37.567Z,15.04
2022-10-24T11:28:18.822Z,14.99
2022-10-24T11:31:07.062Z,15.04
2022-10-24T11:33:43.337Z,14.87
2022-10-24T11:36:16.092Z,15.06
2022-10-24T11:38:58.549Z,15.05
2022-10-24T11:41:33.368Z,15.05
2022-10-24T11:44:06.856Z,15.11
2022-10-24T11:46:42.350Z,15.25
2022-10-24T11:49:20.401Z,15.25
2022-10-24T11:52:01.857Z,15.23
2022-10-24T11:55:18.336Z,15.48
2022-10-24T11:57:52.462Z,15.33
2022-10-24T12:00:27.248Z,15.50
2022-10-24T12:03:02.565Z,15.59
2022-10-24T12:05:52.693Z,15.57
2022-10-24T12:08:34.917Z,15.64
2022-10-24T12:11:12.956Z,15.55
2022-10-24T12:13:55.053Z,15.25
2022-10-24T12:17:06.428Z,15.08
2022-10-24T12:19:33.900Z,14.99
2022-10-24T12:22:02.376Z,15.19
2022-10-24T12:24:34.655Z,15.41
2022-10-24T12:27:05.117Z,15.48
2022-10-24T12:29:34.188Z,15.70
2022-10-24T12:32:28.610Z,15.77
2022-10-24T12:35:25.322Z,15.61
2022-10-24T12:37:49.160Z,15.57
2022-10-24T12:40:55.696Z,15.49
2022-10-24T12:43:35.215Z,15.55
2022-10-24T12:46:24.341Z,15.87
2022-10-24T12:48:57.452Z,16.15
2022-10-24T12:51:40.699Z,16.18
2022-10-24T12:54:14.518Z,16.04
2022-10-24T12:56:51.109Z,15.82
2022-10-24T12:59:29.430Z,15.57
2022-10-24T13:02:12.483Z,15.59
2022-10-24T13:04:52.243Z,15.81
2022-10-24T13:07:29.961Z,15.79
2022-10-24T13:10:21.344Z,15.74
2022-10-24T13:13:31.018Z,15.69
2022-10-24T13:16:03.361Z,15.65
2022-10-24T13:18:52.028Z,15.62
2022-10-24T13:21:51.446Z,15.61
2022-10-24T13:24:21.246Z,15.47
2022-10-24T13:26:53.662Z,15.49
2022-10-24T13:29:23.567Z,15.44
2022-10-24T13:31:55.424Z,15.23
2022-10-24T13:34:28.325Z,15.37
2022-10-24T13:37:06.279Z,15.42
2022-10-24T13:39:40.408Z,15.35
2022-10-24T13:42:40.031Z,15.24
2022-10-24T13:45:25.750Z,15.12
2022-10-24T13:47:57.047Z,15.02
2022-10-24T13:50:31.344Z,15.04
2022-10-24T13:53:06.516Z,15.14
2022-10-24T13:55:46.562Z,15.07
2022-10-24T13:58:21.037Z,14.99
2022-10-24T14:00:53.956Z,15.09
2022-10-24T14:03:23.847Z,15.08
2022-10-24T14:05:56.304Z,15.17
2022-10-24T14:08:37.129Z,15.17
2022-10-24T14:11:07.354Z,15.07
2022-10-24T14:13:39.212Z,15.20
2022-10-24T14:16:07.869Z,15.23
2022-10-24T14:18:38.075Z,15.00
2022-10-24T14:21:05.936Z,14.96
2022-10-24T14:23:40.363Z,14.83
2022-10-24T14:26:12.732Z,14.89
2022-10-24T14:28:45.361Z,14.94
2022-10-24T14:31:24.889Z,15.00
2022-10-24T14:33:54.591Z,15.11
2022-10-24T14:36:24.237Z,15.01
2022-10-24T14:38:55.288Z,14.94
2022-10-24T14:41:29.671Z,14.86
2022-10-24T14:43:58.707Z,15.06
2022-10-24T14:46:40.206Z,15.01
2022-10-24T14:49:26.057Z,15.00
2022-10-24T14:52:16.694Z,14.99
2022-10-24T14:54:55.407Z,14.96
2022-10-24T14:57:23.124Z,14.85
2022-10-24T14:59:51.850Z,14.78
2022-10-24T15:02:20.719Z,14.89
2022-10-24T15:04:48.189Z,14.82
2022-10-24T15:07:20.916Z,14.81
2022-10-24T15:09:58.947Z,14.80
2022-10-24T15:12:37.710Z,14.70
2022-10-24T15:15:23.601Z,14.66
2022-10-24T15:17:51.849Z,14.65
2022-10-24T15:20:22.106Z,14.65
2022-10-24T15:22:51.221Z,14.61
2022-10-24T15:25:34.056Z,14.61
2022-10-24T15:28:03.522Z,14.65
2022-10-24T15:30:37.155Z,14.68
2022-10-24T15:33:05.864Z,14.57
2022-10-24T15:35:40.031Z,14.46
2022-10-24T15:38:13.718Z,14.41
2022-10-24T15:40:43.503Z,14.35
2022-10-24T15:43:13.114Z,14.40
2022-10-24T15:45:40.384Z,14.40
2022-10-24T15:48:07.400Z,14.44
2022-10-24T15:50:34.678Z,14.44
2022-10-24T15:53:03.902Z,14.38
2022-10-24T15:55:32.138Z,14.35
2022-10-24T15:58:03.134Z,14.29
2022-10-24T16:00:30.468Z,14.35
2022-10-24T16:02:58.482Z,14.29
2022-10-24T16:05:29.594Z,14.33
2022-10-24T16:07:59.451Z,14.28
2022-10-24T16:10:26.729Z,14.23
2022-10-24T16:12:53.789Z,14.26
2022-10-24T16:15:24.655Z,14.31
2022-10-24T16:17:51.957Z,14.26
2022-10-24T16:20:19.566Z,14.24
2022-10-24T16:22:47.284Z,14.18
2022-10-24T16:25:26.061Z,14.13
2022-10-24T16:27:53.581Z,13.96
2022-10-24T16:30:24.140Z,13.81
2022-10-24T16:32:51.604Z,13.84
2022-10-24T16:35:21.674Z,13.84
2022-10-24T16:37:48.983Z,13.80
2022-10-24T16:40:16.626Z,13.81
2022-10-24T16:42:43.920Z,13.76
2022-10-24T16:45:11.763Z,13.75
2022-10-24T16:47:38.825Z,13.72
2022-10-24T16:50:06.759Z,13.81
2022-10-24T16:52:34.116Z,13.81
2022-10-24T16:55:01.122Z,13.68
2022-10-24T16:57:28.165Z,13.72
2022-10-24T16:59:55.581Z,13.78
2022-10-24T17:02:22.662Z,13.75
2022-10-24T17:04:49.681Z,13.75
2022-10-24T17:07:16.977Z,13.79
2022-10-24T17:09:43.962Z,13.66
2022-10-24T17:12:10.975Z,13.69
2022-10-24T17:14:38.823Z,13.68
2022-10-24T17:17:06.238Z,13.62
2022-10-24T17:19:35.686Z,13.68
2022-10-24T17:22:03.312Z,13.66
2022-10-24T17:24:30.505Z,13.63
2022-10-24T17:26:57.780Z,13.61
2022-10-24T17:29:33.421Z,13.59
2022-10-24T17:32:00.626Z,13.55
2022-10-24T17:34:28.406Z,13.66
2022-10-24T17:37:13.463Z,13.53
2022-10-24T17:39:56.234Z,13.52
2022-10-24T17:42:23.334Z,13.45
2022-10-24T17:44:50.805Z,13.47
2022-10-24T17:47:17.920Z,13.45
2022-10-24T17:49:45.541Z,13.47
2022-10-24T17:52:16.274Z,13.54
2022-10-24T17:54:45.697Z,13.45
2022-10-24T17:57:13.268Z,13.35
2022-10-24T17:59:40.348Z,13.46
2022-10-24T18:02:12.246Z,13.39
2022-10-24T18:04:42.103Z,13.25
2022-10-24T18:07:09.354Z,13.13
2022-10-24T18:09:39.066Z,13.04
2022-10-24T18:12:06.695Z,12.99
2022-10-24T18:14:36.296Z,12.94
2022-10-24T18:17:03.619Z,12.99
2022-10-24T18:19:30.873Z,13.02
2022-10-24T18:21:59.210Z,12.88
2022-10-24T18:24:26.235Z,12.78
2022-10-24T18:26:53.519Z,12.74
2022-10-24T18:29:20.526Z,12.66
2022-10-24T18:31:47.552Z,12.56
2022-10-24T18:34:14.845Z,12.43
2022-10-24T18:36:41.847Z,12.52
2022-10-24T18:39:08.856Z,12.51
2022-10-24T18:41:54.625Z,12.52
2022-10-24T18:44:33.396Z,12.50
2022-10-24T18:47:05.576Z,12.50
2022-10-24T18:49:33.875Z,12.55
2022-10-24T18:52:10.229Z,12.48
2022-10-24T18:54:40.096Z,12.61
2022-10-24T18:57:22.607Z,12.73
2022-10-24T18:59:50.356Z,12.75
2022-10-24T19:02:29.347Z,12.77
2022-10-24T19:05:11.322Z,12.75
2022-10-24T19:07:38.739Z,12.66
2022-10-24T19:10:06.310Z,12.65
2022-10-24T19:12:33.411Z,12.65
2022-10-24T19:15:00.831Z,12.72
2022-10-24T19:17:27.890Z,12.69
2022-10-24T19:19:57.327Z,12.72
2022-10-24T19:22:24.802Z,12.71
2022-10-24T19:24:51.940Z,12.67
2022-10-24T19:27:18.913Z,12.66
2022-10-24T19:29:46.204Z,12.66
2022-10-24T19:32:13.186Z,12.67
2022-10-24T19:34:41.375Z,12.61
2022-10-24T19:37:09.774Z,12.60
2022-10-24T19:39:36.760Z,12.57
2022-10-24T19:42:03.990Z,12.58
2022-10-24T19:44:31.322Z,12.63
2022-10-24T19:46:58.320Z,12.59
2022-10-24T19:49:25.337Z,12.68
2022-10-24T19:51:52.661Z,12.62
2022-10-24T19:54:19.990Z,12.53
2022-10-24T19:56:49.323Z,12.55
2022-10-24T19:59:16.771Z,12.63
2022-10-24T20:01:43.858Z,12.81
2022-10-24T20:04:11.249Z,12.82
2022-10-24T20:06:38.325Z,12.84
2022-10-24T20:09:05.702Z,12.80
2022-10-24T20:11:33.017Z,12.74
2022-10-24T20:14:00.035Z,12.66
2022-10-24T20:16:27.083Z,12.59
2022-10-24T20:18:54.464Z,12.58
2022-10-24T20:21:21.520Z,12.59
2022-10-24T20:23:49.228Z,12.63
2022-10-24T20:26:19.303Z,12.56
2022-10-24T20:28:48.409Z,12.53
2022-10-24T20:31:21.203Z,12.45
2022-10-24T20:33:48.885Z,12.49
2022-10-24T20:36:16.063Z,12.45
2022-10-24T20:38:43.029Z,12.55
2022-10-24T20:41:10.351Z,12.56
2022-10-24T20:43:37.432Z,12.50
2022-10-24T20:46:05.721Z,12.41
2022-10-24T20:48:34.041Z,12.43
2022-10-24T20:51:13.660Z,12.43
2022-10-24T20:53:41.853Z,12.49
2022-10-24T20:56:14.004Z,12.43
2022-10-24T20:58:42.651Z,12.57
2022-10-24T21:01:15.049Z,12.55
2022-10-24T21:03:42.932Z,12.58
2022-10-24T21:06:36.560Z,12.64
2022-10-24T21:09:05.550Z,12.58
2022-10-24T21:11:33.589Z,12.67
2022-10-24T21:14:09.637Z,12.65
2022-10-24T21:16:36.993Z,12.59
2022-10-24T21:19:04.336Z,12.66
2022-10-24T21:21:31.471Z,12.69
2022-10-24T21:24:03.960Z,12.55
2022-10-24T21:26:35.104Z,12.70
2022-10-24T21:29:09.358Z,12.65
2022-10-24T21:31:51.454Z,12.68
2022-10-24T21:34:19.222Z,12.70
2022-10-24T21:36:46.218Z,12.74
2022-10-24T21:39:15.500Z,12.71
2022-10-24T21:41:43.157Z,12.71
2022-10-24T21:44:10.307Z,12.68
2022-10-24T21:46:37.425Z,12.68
2022-10-24T21:49:04.878Z,12.72
2022-10-24T21:51:34.178Z,12.67
2022-10-24T21:54:06.889Z,12.70
2022-10-24T21:56:36.844Z,12.65
2022-10-24T21:59:06.614Z,12.66
2022-10-24T22:01:36.023Z,12.68
2022-10-24T22:04:04.430Z,12.72
2022-10-24T22:06:32.569Z,12.72
2022-10-24T22:09:00.503Z,12.73
2022-10-24T22:11:29.878Z,12.66
2022-10-24T22:13:57.552Z,12.65
2022-10-24T22:16:26.725Z,12.70
2022-10-24T22:18:54.532Z,12.70
2022-10-24T22:21:27.588Z,12.73
2022-10-24T22:23:56.587Z,12.68
2022-10-24T22:26:24.180Z,12.68
2022-10-24T22:28:51.414Z,12.64
2022-10-24T22:31:19.021Z,12.69
2022-10-24T22:33:46.193Z,12.78
2022-10-24T22:36:21.276Z,12.67
2022-10-24T22:38:52.590Z,12.57
2022-10-24T22:41:20.742Z,12.67
2022-10-24T22:43:48.193Z,12.55
2022-10-24T22:46:45.647Z,12.48
2022-10-24T22:49:38.540Z,12.54
2022-10-24T22:52:06.269Z,12.64
2022-10-24T22:54:35.492Z,12.60
2022-10-24T22:57:04.075Z,12.67
2022-10-24T22:59:33.375Z,12.68
2022-10-24T23:02:08.458Z,12.64
2022-10-24T23:04:45.920Z,12.68
2022-10-24T23:07:30.594Z,12.73
2022-10-24T23:09:57.894Z,12.76
2022-10-24T23:12:25.378Z,12.67
2022-10-24T23:14:53.389Z,12.72
2022-10-24T23:17:26.142Z,12.76
2022-10-24T23:19:54.141Z,12.78
2022-10-24T23:22:32.633Z,12.79
2022-10-24T23:25:01.054Z,12.81
2022-10-24T23:27:43.167Z,12.82
2022-10-24T23:30:17.910Z,12.82
2022-10-24T23:32:46.899Z,12.72
2022-10-24T23:35:15.567Z,12.60
2022-10-24T23:37:50.537Z,12.67
2022-10-24T23:40:17.732Z,12.70
2022-10-24T23:42:46.044Z,12.71
2022-10-24T23:45:14.948Z,12.75
2022-10-24T23:48:03.925Z,12.69
2022-10-24T23:50:49.701Z,12.68
2022-10-24T23:53:32.519Z,12.68
2022-10-24T23:58:32.091Z,12.57
